sensor_id;sensor_type;location;lat;lon;timestamp;temperature;humidity
69189;DHT22;56302;52.322;5.926;2024-01-27T00:01:48;2.10;98.00
69189;DHT22;56302;52.322;5.926;2024-01-27T00:04:13;2.10;98.00
69189;DHT22;56302;52.322;5.926;2024-01-27T00:06:39;2.10;98.10
69189;DHT22;56302;52.322;5.926;2024-01-27T00:09:05;2.10;98.30
69189;DHT22;56302;52.322;5.926;2024-01-27T00:11:31;2.10;98.20
69189;DHT22;56302;52.322;5.926;2024-01-27T00:13:57;2.10;98.30
69189;DHT22;56302;52.322;5.926;2024-01-27T00:16:24;2.10;98.10
69189;DHT22;56302;52.322;5.926;2024-01-27T00:18:50;2.10;98.30
69189;DHT22;56302;52.322;5.926;2024-01-27T00:21:15;2.20;98.20
69189;DHT22;56302;52.322;5.926;2024-01-27T00:23:41;2.10;98.30
69189;DHT22;56302;52.322;5.926;2024-01-27T00:26:07;2.20;98.30
69189;DHT22;56302;52.322;5.926;2024-01-27T00:28:32;2.20;98.20
69189;DHT22;56302;52.322;5.926;2024-01-27T00:30:58;2.10;98.30
69189;DHT22;56302;52.322;5.926;2024-01-27T00:33:23;2.10;98.30
69189;DHT22;56302;52.322;5.926;2024-01-27T00:35:49;2.20;98.30
69189;DHT22;56302;52.322;5.926;2024-01-27T00:38:14;2.20;98.30
69189;DHT22;56302;52.322;5.926;2024-01-27T00:40:40;2.20;98.30
69189;DHT22;56302;52.322;5.926;2024-01-27T00:43:06;2.20;98.30
69189;DHT22;56302;52.322;5.926;2024-01-27T00:45:31;2.20;98.20
69189;DHT22;56302;52.322;5.926;2024-01-27T00:47:57;2.10;98.20
69189;DHT22;56302;52.322;5.926;2024-01-27T00:50:23;2.10;98.30
69189;DHT22;56302;52.322;5.926;2024-01-27T00:52:49;2.10;98.30
69189;DHT22;56302;52.322;5.926;2024-01-27T00:55:14;2.20;98.40
69189;DHT22;56302;52.322;5.926;2024-01-27T00:57:40;2.20;98.50
69189;DHT22;56302;52.322;5.926;2024-01-27T01:00:07;2.20;98.40
69189;DHT22;56302;52.322;5.926;2024-01-27T01:02:34;2.20;98.40
69189;DHT22;56302;52.322;5.926;2024-01-27T01:04:59;2.20;98.20
69189;DHT22;56302;52.322;5.926;2024-01-27T01:07:25;2.10;98.20
69189;DHT22;56302;52.322;5.926;2024-01-27T01:09:50;2.10;98.30
69189;DHT22;56302;52.322;5.926;2024-01-27T01:12:16;2.10;98.30
69189;DHT22;56302;52.322;5.926;2024-01-27T01:14:43;2.10;98.40
69189;DHT22;56302;52.322;5.926;2024-01-27T01:17:09;2.10;98.40
69189;DHT22;56302;52.322;5.926;2024-01-27T01:19:36;2.10;98.40
69189;DHT22;56302;52.322;5.926;2024-01-27T01:22:02;2.00;98.40
69189;DHT22;56302;52.322;5.926;2024-01-27T01:24:29;2.10;98.40
69189;DHT22;56302;52.322;5.926;2024-01-27T01:26:54;2.10;98.40
69189;DHT22;56302;52.322;5.926;2024-01-27T01:29:20;2.00;98.40
69189;DHT22;56302;52.322;5.926;2024-01-27T01:31:45;2.00;98.40
69189;DHT22;56302;52.322;5.926;2024-01-27T01:34:11;1.90;98.30
69189;DHT22;56302;52.322;5.926;2024-01-27T01:36:36;1.90;98.40
69189;DHT22;56302;52.322;5.926;2024-01-27T01:39:03;1.90;98.50
69189;DHT22;56302;52.322;5.926;2024-01-27T01:41:28;1.90;98.50
69189;DHT22;56302;52.322;5.926;2024-01-27T01:43:54;1.90;98.60
69189;DHT22;56302;52.322;5.926;2024-01-27T01:46:22;1.90;98.70
69189;DHT22;56302;52.322;5.926;2024-01-27T01:48:49;1.90;98.70
69189;DHT22;56302;52.322;5.926;2024-01-27T01:51:16;1.90;98.70
69189;DHT22;56302;52.322;5.926;2024-01-27T01:53:43;1.90;98.80
69189;DHT22;56302;52.322;5.926;2024-01-27T01:56:10;2.00;98.80
69189;DHT22;56302;52.322;5.926;2024-01-27T01:58:38;2.00;98.80
69189;DHT22;56302;52.322;5.926;2024-01-27T02:01:04;2.00;98.80
69189;DHT22;56302;52.322;5.926;2024-01-27T02:03:30;1.90;98.70
69189;DHT22;56302;52.322;5.926;2024-01-27T02:05:56;1.90;98.80
69189;DHT22;56302;52.322;5.926;2024-01-27T02:08:21;1.90;98.80
69189;DHT22;56302;52.322;5.926;2024-01-27T02:10:47;2.00;98.80
69189;DHT22;56302;52.322;5.926;2024-01-27T02:13:20;2.00;99.00
69189;DHT22;56302;52.322;5.926;2024-01-27T02:15:46;2.00;98.80
69189;DHT22;56302;52.322;5.926;2024-01-27T02:18:12;2.00;98.80
69189;DHT22;56302;52.322;5.926;2024-01-27T02:20:38;2.00;98.70
69189;DHT22;56302;52.322;5.926;2024-01-27T02:23:04;1.90;98.70
69189;DHT22;56302;52.322;5.926;2024-01-27T02:25:33;1.90;98.70
69189;DHT22;56302;52.322;5.926;2024-01-27T02:27:59;1.80;98.60
69189;DHT22;56302;52.322;5.926;2024-01-27T02:30:25;1.80;98.60
69189;DHT22;56302;52.322;5.926;2024-01-27T02:32:51;1.70;98.70
69189;DHT22;56302;52.322;5.926;2024-01-27T02:35:17;1.70;98.60
69189;DHT22;56302;52.322;5.926;2024-01-27T02:37:42;1.60;98.60
69189;DHT22;56302;52.322;5.926;2024-01-27T02:40:08;1.60;98.90
69189;DHT22;56302;52.322;5.926;2024-01-27T02:42:37;1.60;98.80
69189;DHT22;56302;52.322;5.926;2024-01-27T02:45:03;1.60;98.80
69189;DHT22;56302;52.322;5.926;2024-01-27T02:47:29;1.50;98.80
69189;DHT22;56302;52.322;5.926;2024-01-27T02:49:55;1.50;98.90
69189;DHT22;56302;52.322;5.926;2024-01-27T02:52:21;1.50;98.90
69189;DHT22;56302;52.322;5.926;2024-01-27T02:54:46;1.50;99.00
69189;DHT22;56302;52.322;5.926;2024-01-27T02:57:12;1.50;99.00
69189;DHT22;56302;52.322;5.926;2024-01-27T02:59:38;1.50;99.00
69189;DHT22;56302;52.322;5.926;2024-01-27T03:02:05;1.50;99.00
69189;DHT22;56302;52.322;5.926;2024-01-27T03:04:31;1.50;99.00
69189;DHT22;56302;52.322;5.926;2024-01-27T03:06:56;1.40;99.00
69189;DHT22;56302;52.322;5.926;2024-01-27T03:09:22;1.40;99.00
69189;DHT22;56302;52.322;5.926;2024-01-27T03:11:48;1.40;99.20
69189;DHT22;56302;52.322;5.926;2024-01-27T03:14:13;1.40;99.20
69189;DHT22;56302;52.322;5.926;2024-01-27T03:16:39;1.30;99.40
69189;DHT22;56302;52.322;5.926;2024-01-27T03:19:05;1.30;99.40
69189;DHT22;56302;52.322;5.926;2024-01-27T03:21:32;1.30;99.50
69189;DHT22;56302;52.322;5.926;2024-01-27T03:23:58;1.30;99.60
69189;DHT22;56302;52.322;5.926;2024-01-27T03:26:23;1.30;99.70
69189;DHT22;56302;52.322;5.926;2024-01-27T03:28:49;1.40;99.90
69189;DHT22;56302;52.322;5.926;2024-01-27T03:31:14;1.50;99.90
69189;DHT22;56302;52.322;5.926;2024-01-27T03:33:40;1.50;99.90
69189;DHT22;56302;52.322;5.926;2024-01-27T03:36:12;1.50;99.90
69189;DHT22;56302;52.322;5.926;2024-01-27T03:38:39;1.40;99.90
69189;DHT22;56302;52.322;5.926;2024-01-27T03:41:06;1.40;99.90
69189;DHT22;56302;52.322;5.926;2024-01-27T03:43:33;1.40;99.90
69189;DHT22;56302;52.322;5.926;2024-01-27T03:45:59;1.40;99.90
69189;DHT22;56302;52.322;5.926;2024-01-27T03:48:25;1.40;99.90
69189;DHT22;56302;52.322;5.926;2024-01-27T03:50:51;1.40;99.90
69189;DHT22;56302;52.322;5.926;2024-01-27T03:53:16;1.40;99.90
69189;DHT22;56302;52.322;5.926;2024-01-27T03:55:42;1.40;99.90
69189;DHT22;56302;52.322;5.926;2024-01-27T03:58:07;1.40;99.90
69189;DHT22;56302;52.322;5.926;2024-01-27T04:00:33;1.40;99.90
69189;DHT22;56302;52.322;5.926;2024-01-27T04:02:59;1.30;99.90
69189;DHT22;56302;52.322;5.926;2024-01-27T04:05:25;1.50;99.90
69189;DHT22;56302;52.322;5.926;2024-01-27T04:07:51;1.40;99.90
69189;DHT22;56302;52.322;5.926;2024-01-27T04:10:18;1.40;99.90
69189;DHT22;56302;52.322;5.926;2024-01-27T04:12:43;1.30;99.90
69189;DHT22;56302;52.322;5.926;2024-01-27T04:15:10;1.30;99.90
69189;DHT22;56302;52.322;5.926;2024-01-27T04:17:40;1.30;99.90
69189;DHT22;56302;52.322;5.926;2024-01-27T04:20:06;1.20;99.90
69189;DHT22;56302;52.322;5.926;2024-01-27T04:22:33;1.20;99.90
69189;DHT22;56302;52.322;5.926;2024-01-27T04:24:59;1.20;99.90
69189;DHT22;56302;52.322;5.926;2024-01-27T04:27:24;1.20;99.90
69189;DHT22;56302;52.322;5.926;2024-01-27T04:29:50;1.20;99.90
69189;DHT22;56302;52.322;5.926;2024-01-27T04:32:15;1.20;99.90
69189;DHT22;56302;52.322;5.926;2024-01-27T04:34:41;1.10;99.90
69189;DHT22;56302;52.322;5.926;2024-01-27T04:37:06;1.10;99.90
69189;DHT22;56302;52.322;5.926;2024-01-27T04:39:32;1.10;99.90
69189;DHT22;56302;52.322;5.926;2024-01-27T04:41:58;1.10;99.90
69189;DHT22;56302;52.322;5.926;2024-01-27T04:44:23;1.10;99.90
69189;DHT22;56302;52.322;5.926;2024-01-27T04:46:49;1.10;99.90
69189;DHT22;56302;52.322;5.926;2024-01-27T04:49:15;1.10;99.90
69189;DHT22;56302;52.322;5.926;2024-01-27T04:51:41;1.10;99.90
69189;DHT22;56302;52.322;5.926;2024-01-27T04:54:07;1.00;99.90
69189;DHT22;56302;52.322;5.926;2024-01-27T04:56:33;1.00;99.90
69189;DHT22;56302;52.322;5.926;2024-01-27T04:58:58;1.00;99.90
69189;DHT22;56302;52.322;5.926;2024-01-27T05:01:24;1.00;99.90
69189;DHT22;56302;52.322;5.926;2024-01-27T05:03:49;0.90;99.90
69189;DHT22;56302;52.322;5.926;2024-01-27T05:06:15;1.00;99.90
69189;DHT22;56302;52.322;5.926;2024-01-27T05:08:41;1.10;99.90
69189;DHT22;56302;52.322;5.926;2024-01-27T05:11:07;1.00;99.90
69189;DHT22;56302;52.322;5.926;2024-01-27T05:13:33;0.90;99.90
69189;DHT22;56302;52.322;5.926;2024-01-27T05:15:58;1.00;99.90
69189;DHT22;56302;52.322;5.926;2024-01-27T05:18:24;1.00;99.90
69189;DHT22;56302;52.322;5.926;2024-01-27T05:20:49;0.90;99.90
69189;DHT22;56302;52.322;5.926;2024-01-27T05:23:15;0.90;99.90
69189;DHT22;56302;52.322;5.926;2024-01-27T05:25:41;1.00;99.90
69189;DHT22;56302;52.322;5.926;2024-01-27T05:28:06;1.00;99.90
69189;DHT22;56302;52.322;5.926;2024-01-27T05:30:32;0.90;99.90
69189;DHT22;56302;52.322;5.926;2024-01-27T05:32:58;0.90;99.90
69189;DHT22;56302;52.322;5.926;2024-01-27T05:35:24;0.90;99.90
69189;DHT22;56302;52.322;5.926;2024-01-27T05:37:49;0.90;99.90
69189;DHT22;56302;52.322;5.926;2024-01-27T05:40:16;1.00;99.90
69189;DHT22;56302;52.322;5.926;2024-01-27T05:42:42;1.00;99.90
69189;DHT22;56302;52.322;5.926;2024-01-27T05:45:08;1.00;99.90
69189;DHT22;56302;52.322;5.926;2024-01-27T05:47:35;0.90;99.90
69189;DHT22;56302;52.322;5.926;2024-01-27T05:50:01;0.90;99.90
69189;DHT22;56302;52.322;5.926;2024-01-27T05:52:26;0.90;99.90
69189;DHT22;56302;52.322;5.926;2024-01-27T05:54:52;0.90;99.90
69189;DHT22;56302;52.322;5.926;2024-01-27T05:57:18;0.90;99.90
69189;DHT22;56302;52.322;5.926;2024-01-27T05:59:44;0.90;99.90
69189;DHT22;56302;52.322;5.926;2024-01-27T06:02:10;0.90;99.90
69189;DHT22;56302;52.322;5.926;2024-01-27T06:04:35;0.90;99.90
69189;DHT22;56302;52.322;5.926;2024-01-27T06:07:01;0.90;99.90
69189;DHT22;56302;52.322;5.926;2024-01-27T06:09:26;0.80;99.90
69189;DHT22;56302;52.322;5.926;2024-01-27T06:11:52;0.90;99.90
69189;DHT22;56302;52.322;5.926;2024-01-27T06:14:17;0.90;99.90
69189;DHT22;56302;52.322;5.926;2024-01-27T06:16:43;0.80;99.90
69189;DHT22;56302;52.322;5.926;2024-01-27T06:19:08;0.90;99.90
69189;DHT22;56302;52.322;5.926;2024-01-27T06:21:35;0.80;99.90
69189;DHT22;56302;52.322;5.926;2024-01-27T06:24:00;0.80;99.90
69189;DHT22;56302;52.322;5.926;2024-01-27T06:26:26;0.80;99.90
69189;DHT22;56302;52.322;5.926;2024-01-27T06:28:52;0.70;99.90
69189;DHT22;56302;52.322;5.926;2024-01-27T06:31:17;0.70;99.90
69189;DHT22;56302;52.322;5.926;2024-01-27T06:33:43;0.70;99.90
69189;DHT22;56302;52.322;5.926;2024-01-27T06:36:09;0.70;99.90
69189;DHT22;56302;52.322;5.926;2024-01-27T06:38:37;0.70;99.90
69189;DHT22;56302;52.322;5.926;2024-01-27T06:41:03;0.70;99.90
69189;DHT22;56302;52.322;5.926;2024-01-27T06:43:29;0.70;99.90
69189;DHT22;56302;52.322;5.926;2024-01-27T06:45:54;0.70;99.90
69189;DHT22;56302;52.322;5.926;2024-01-27T06:48:22;0.80;99.90
69189;DHT22;56302;52.322;5.926;2024-01-27T06:50:50;0.70;99.90
69189;DHT22;56302;52.322;5.926;2024-01-27T06:53:17;0.70;99.90
69189;DHT22;56302;52.322;5.926;2024-01-27T06:55:43;0.60;99.90
69189;DHT22;56302;52.322;5.926;2024-01-27T06:58:09;0.60;99.90
69189;DHT22;56302;52.322;5.926;2024-01-27T07:00:34;0.60;99.90
69189;DHT22;56302;52.322;5.926;2024-01-27T07:03:00;0.60;99.90
69189;DHT22;56302;52.322;5.926;2024-01-27T07:05:25;0.60;99.90
69189;DHT22;56302;52.322;5.926;2024-01-27T07:07:51;0.60;99.90
69189;DHT22;56302;52.322;5.926;2024-01-27T07:10:17;0.60;99.90
69189;DHT22;56302;52.322;5.926;2024-01-27T07:12:42;0.60;99.90
69189;DHT22;56302;52.322;5.926;2024-01-27T07:15:08;0.60;99.90
69189;DHT22;56302;52.322;5.926;2024-01-27T07:17:33;0.60;99.90
69189;DHT22;56302;52.322;5.926;2024-01-27T07:19:59;0.50;99.90
69189;DHT22;56302;52.322;5.926;2024-01-27T07:22:25;0.50;99.90
69189;DHT22;56302;52.322;5.926;2024-01-27T07:24:50;0.50;99.90
69189;DHT22;56302;52.322;5.926;2024-01-27T07:27:17;0.50;99.90
69189;DHT22;56302;52.322;5.926;2024-01-27T07:29:43;0.50;99.90
69189;DHT22;56302;52.322;5.926;2024-01-27T07:32:09;0.50;99.90
69189;DHT22;56302;52.322;5.926;2024-01-27T07:34:43;0.50;99.90
69189;DHT22;56302;52.322;5.926;2024-01-27T07:37:09;0.50;99.90
69189;DHT22;56302;52.322;5.926;2024-01-27T07:39:35;0.50;99.90
69189;DHT22;56302;52.322;5.926;2024-01-27T07:42:00;0.60;99.90
69189;DHT22;56302;52.322;5.926;2024-01-27T07:44:27;0.60;99.90
69189;DHT22;56302;52.322;5.926;2024-01-27T07:46:53;0.60;99.90
69189;DHT22;56302;52.322;5.926;2024-01-27T07:49:19;0.60;99.90
69189;DHT22;56302;52.322;5.926;2024-01-27T07:51:44;0.70;99.90
69189;DHT22;56302;52.322;5.926;2024-01-27T07:54:10;0.70;99.90
69189;DHT22;56302;52.322;5.926;2024-01-27T07:56:38;0.80;99.90
69189;DHT22;56302;52.322;5.926;2024-01-27T07:59:03;0.80;99.90
69189;DHT22;56302;52.322;5.926;2024-01-27T08:01:29;0.80;99.90
69189;DHT22;56302;52.322;5.926;2024-01-27T08:03:54;0.80;99.90
69189;DHT22;56302;52.322;5.926;2024-01-27T08:06:28;0.90;99.90
69189;DHT22;56302;52.322;5.926;2024-01-27T08:08:55;0.90;99.90
69189;DHT22;56302;52.322;5.926;2024-01-27T08:11:20;0.90;99.90
69189;DHT22;56302;52.322;5.926;2024-01-27T08:13:46;1.00;99.90
69189;DHT22;56302;52.322;5.926;2024-01-27T08:16:12;1.10;99.90
69189;DHT22;56302;52.322;5.926;2024-01-27T08:18:39;1.10;99.90
69189;DHT22;56302;52.322;5.926;2024-01-27T08:21:08;1.10;99.90
69189;DHT22;56302;52.322;5.926;2024-01-27T08:23:34;1.20;99.90
69189;DHT22;56302;52.322;5.926;2024-01-27T08:25:59;1.30;99.90
69189;DHT22;56302;52.322;5.926;2024-01-27T08:28:25;1.30;99.90
69189;DHT22;56302;52.322;5.926;2024-01-27T08:30:51;1.30;99.90
69189;DHT22;56302;52.322;5.926;2024-01-27T08:33:16;1.40;99.90
69189;DHT22;56302;52.322;5.926;2024-01-27T08:35:42;1.50;99.90
69189;DHT22;56302;52.322;5.926;2024-01-27T08:38:08;1.50;99.90
69189;DHT22;56302;52.322;5.926;2024-01-27T08:40:35;1.70;99.90
69189;DHT22;56302;52.322;5.926;2024-01-27T08:43:01;1.80;99.90
69189;DHT22;56302;52.322;5.926;2024-01-27T08:45:27;1.90;99.90
69189;DHT22;56302;52.322;5.926;2024-01-27T08:47:52;1.90;99.90
69189;DHT22;56302;52.322;5.926;2024-01-27T08:50:18;2.10;99.90
69189;DHT22;56302;52.322;5.926;2024-01-27T08:52:44;2.20;99.90
69189;DHT22;56302;52.322;5.926;2024-01-27T08:55:11;2.40;99.90
69189;DHT22;56302;52.322;5.926;2024-01-27T08:57:36;2.40;99.90
69189;DHT22;56302;52.322;5.926;2024-01-27T09:00:02;2.50;99.90
69189;DHT22;56302;52.322;5.926;2024-01-27T09:02:28;2.50;99.90
69189;DHT22;56302;52.322;5.926;2024-01-27T09:04:54;2.60;99.90
69189;DHT22;56302;52.322;5.926;2024-01-27T09:07:20;2.60;99.90
69189;DHT22;56302;52.322;5.926;2024-01-27T09:09:46;2.70;99.90
69189;DHT22;56302;52.322;5.926;2024-01-27T09:12:11;2.70;99.90
69189;DHT22;56302;52.322;5.926;2024-01-27T09:14:37;2.70;99.90
69189;DHT22;56302;52.322;5.926;2024-01-27T09:17:03;2.70;99.90
69189;DHT22;56302;52.322;5.926;2024-01-27T09:19:28;2.70;99.90
69189;DHT22;56302;52.322;5.926;2024-01-27T09:21:54;2.80;99.90
69189;DHT22;56302;52.322;5.926;2024-01-27T09:24:20;2.80;99.90
69189;DHT22;56302;52.322;5.926;2024-01-27T09:26:45;2.90;99.90
69189;DHT22;56302;52.322;5.926;2024-01-27T09:29:11;2.90;99.90
69189;DHT22;56302;52.322;5.926;2024-01-27T09:31:36;2.90;99.90
69189;DHT22;56302;52.322;5.926;2024-01-27T09:34:02;2.90;99.90
69189;DHT22;56302;52.322;5.926;2024-01-27T09:36:27;2.90;99.90
69189;DHT22;56302;52.322;5.926;2024-01-27T09:38:53;3.00;99.80
69189;DHT22;56302;52.322;5.926;2024-01-27T09:41:20;3.10;99.90
69189;DHT22;56302;52.322;5.926;2024-01-27T09:43:46;3.20;99.80
69189;DHT22;56302;52.322;5.926;2024-01-27T09:46:15;3.30;99.70
69189;DHT22;56302;52.322;5.926;2024-01-27T09:48:42;3.40;99.40
69189;DHT22;56302;52.322;5.926;2024-01-27T09:51:10;3.50;99.30
69189;DHT22;56302;52.322;5.926;2024-01-27T09:53:36;3.60;99.00
69189;DHT22;56302;52.322;5.926;2024-01-27T09:56:03;3.80;98.20
69189;DHT22;56302;52.322;5.926;2024-01-27T09:58:30;3.80;97.90
69189;DHT22;56302;52.322;5.926;2024-01-27T10:01:00;3.80;97.70
69189;DHT22;56302;52.322;5.926;2024-01-27T10:03:27;3.90;97.60
69189;DHT22;56302;52.322;5.926;2024-01-27T10:05:57;4.00;97.50
69189;DHT22;56302;52.322;5.926;2024-01-27T10:08:24;4.10;97.20
69189;DHT22;56302;52.322;5.926;2024-01-27T10:10:54;4.20;96.90
69189;DHT22;56302;52.322;5.926;2024-01-27T10:13:19;4.30;96.50
69189;DHT22;56302;52.322;5.926;2024-01-27T10:16:02;4.50;96.00
69189;DHT22;56302;52.322;5.926;2024-01-27T10:18:29;4.50;95.60
69189;DHT22;56302;52.322;5.926;2024-01-27T10:20:55;4.60;95.20
69189;DHT22;56302;52.322;5.926;2024-01-27T10:23:20;4.70;94.90
69189;DHT22;56302;52.322;5.926;2024-01-27T10:25:46;4.80;94.40
69189;DHT22;56302;52.322;5.926;2024-01-27T10:28:12;4.90;94.10
69189;DHT22;56302;52.322;5.926;2024-01-27T10:30:37;4.90;94.00
69189;DHT22;56302;52.322;5.926;2024-01-27T10:33:03;5.10;93.60
69189;DHT22;56302;52.322;5.926;2024-01-27T10:35:29;5.10;92.90
69189;DHT22;56302;52.322;5.926;2024-01-27T10:37:55;5.20;92.90
69189;DHT22;56302;52.322;5.926;2024-01-27T10:40:22;5.30;92.60
69189;DHT22;56302;52.322;5.926;2024-01-27T10:43:05;5.50;91.90
69189;DHT22;56302;52.322;5.926;2024-01-27T10:45:38;5.70;91.90
69189;DHT22;56302;52.322;5.926;2024-01-27T10:48:05;5.70;91.20
69189;DHT22;56302;52.322;5.926;2024-01-27T10:50:36;5.80;91.00
69189;DHT22;56302;52.322;5.926;2024-01-27T10:53:04;5.90;90.20
69189;DHT22;56302;52.322;5.926;2024-01-27T10:55:33;6.00;90.00
69189;DHT22;56302;52.322;5.926;2024-01-27T10:58:00;6.10;89.20
69189;DHT22;56302;52.322;5.926;2024-01-27T11:00:28;6.30;89.30
69189;DHT22;56302;52.322;5.926;2024-01-27T11:02:59;6.40;89.30
69189;DHT22;56302;52.322;5.926;2024-01-27T11:05:28;6.40;88.10
69189;DHT22;56302;52.322;5.926;2024-01-27T11:07:55;6.50;87.50
69189;DHT22;56302;52.322;5.926;2024-01-27T11:10:22;6.50;87.30
69189;DHT22;56302;52.322;5.926;2024-01-27T11:12:49;6.60;86.90
69189;DHT22;56302;52.322;5.926;2024-01-27T11:15:15;6.60;86.70
69189;DHT22;56302;52.322;5.926;2024-01-27T11:17:41;6.60;86.20
69189;DHT22;56302;52.322;5.926;2024-01-27T11:20:10;6.60;86.30
69189;DHT22;56302;52.322;5.926;2024-01-27T11:22:40;6.70;86.50
69189;DHT22;56302;52.322;5.926;2024-01-27T11:27:40;6.90;86.80
69189;DHT22;56302;52.322;5.926;2024-01-27T11:32:50;7.10;86.10
69189;DHT22;56302;52.322;5.926;2024-01-27T11:35:17;7.10;85.70
69189;DHT22;56302;52.322;5.926;2024-01-27T11:37:43;7.10;84.40
69189;DHT22;56302;52.322;5.926;2024-01-27T11:40:09;7.20;83.90
69189;DHT22;56302;52.322;5.926;2024-01-27T11:42:35;7.30;84.20
69189;DHT22;56302;52.322;5.926;2024-01-27T11:45:01;7.40;83.50
69189;DHT22;56302;52.322;5.926;2024-01-27T11:47:27;7.60;84.20
69189;DHT22;56302;52.322;5.926;2024-01-27T11:49:54;7.70;83.10
69189;DHT22;56302;52.322;5.926;2024-01-27T11:52:21;7.80;82.00
69189;DHT22;56302;52.322;5.926;2024-01-27T11:54:56;7.80;81.30
69189;DHT22;56302;52.322;5.926;2024-01-27T11:57:22;7.90;79.90
69189;DHT22;56302;52.322;5.926;2024-01-27T11:59:48;7.90;79.50
69189;DHT22;56302;52.322;5.926;2024-01-27T12:02:14;7.90;78.80
69189;DHT22;56302;52.322;5.926;2024-01-27T12:04:40;7.90;78.30
69189;DHT22;56302;52.322;5.926;2024-01-27T12:07:06;7.90;78.30
69189;DHT22;56302;52.322;5.926;2024-01-27T12:09:32;7.90;78.10
69189;DHT22;56302;52.322;5.926;2024-01-27T12:11:58;7.90;78.80
69189;DHT22;56302;52.322;5.926;2024-01-27T12:14:23;7.90;78.10
69189;DHT22;56302;52.322;5.926;2024-01-27T12:16:50;7.80;77.40
69189;DHT22;56302;52.322;5.926;2024-01-27T12:19:16;7.80;77.80
69189;DHT22;56302;52.322;5.926;2024-01-27T12:21:48;7.80;77.60
69189;DHT22;56302;52.322;5.926;2024-01-27T12:24:17;7.80;77.70
69189;DHT22;56302;52.322;5.926;2024-01-27T12:26:44;7.80;77.30
69189;DHT22;56302;52.322;5.926;2024-01-27T12:29:10;7.80;77.50
69189;DHT22;56302;52.322;5.926;2024-01-27T12:31:36;7.80;76.80
69189;DHT22;56302;52.322;5.926;2024-01-27T12:34:02;7.90;75.20
69189;DHT22;56302;52.322;5.926;2024-01-27T12:36:27;7.90;76.30
69189;DHT22;56302;52.322;5.926;2024-01-27T12:39:00;8.00;76.90
69189;DHT22;56302;52.322;5.926;2024-01-27T12:41:28;8.00;75.70
69189;DHT22;56302;52.322;5.926;2024-01-27T12:43:55;8.00;75.70
69189;DHT22;56302;52.322;5.926;2024-01-27T12:46:21;7.90;76.20
69189;DHT22;56302;52.322;5.926;2024-01-27T12:48:47;7.90;75.40
69189;DHT22;56302;52.322;5.926;2024-01-27T12:51:12;7.80;75.40
69189;DHT22;56302;52.322;5.926;2024-01-27T12:53:40;7.80;75.50
69189;DHT22;56302;52.322;5.926;2024-01-27T12:56:11;7.70;74.90
69189;DHT22;56302;52.322;5.926;2024-01-27T12:58:38;7.70;75.40
69189;DHT22;56302;52.322;5.926;2024-01-27T13:01:03;7.70;75.50
69189;DHT22;56302;52.322;5.926;2024-01-27T13:03:29;7.70;75.60
69189;DHT22;56302;52.322;5.926;2024-01-27T13:05:56;7.70;74.60
69189;DHT22;56302;52.322;5.926;2024-01-27T13:08:22;7.70;75.60
69189;DHT22;56302;52.322;5.926;2024-01-27T13:10:48;7.70;75.40
69189;DHT22;56302;52.322;5.926;2024-01-27T13:13:14;7.70;76.20
69189;DHT22;56302;52.322;5.926;2024-01-27T13:15:39;7.70;74.70
69189;DHT22;56302;52.322;5.926;2024-01-27T13:18:05;7.70;75.40
69189;DHT22;56302;52.322;5.926;2024-01-27T13:20:31;7.60;74.80
69189;DHT22;56302;52.322;5.926;2024-01-27T13:23:00;7.60;74.80
69189;DHT22;56302;52.322;5.926;2024-01-27T13:25:26;7.60;75.40
69189;DHT22;56302;52.322;5.926;2024-01-27T13:27:51;7.60;74.90
69189;DHT22;56302;52.322;5.926;2024-01-27T13:30:17;7.70;74.50
69189;DHT22;56302;52.322;5.926;2024-01-27T13:32:45;7.70;74.80
69189;DHT22;56302;52.322;5.926;2024-01-27T13:35:11;7.70;74.30
69189;DHT22;56302;52.322;5.926;2024-01-27T13:37:37;7.60;74.50
69189;DHT22;56302;52.322;5.926;2024-01-27T13:40:03;7.60;74.30
69189;DHT22;56302;52.322;5.926;2024-01-27T13:42:30;7.60;74.70
69189;DHT22;56302;52.322;5.926;2024-01-27T13:44:56;7.60;74.30
69189;DHT22;56302;52.322;5.926;2024-01-27T13:47:21;7.60;73.80
69189;DHT22;56302;52.322;5.926;2024-01-27T13:49:47;7.50;74.40
69189;DHT22;56302;52.322;5.926;2024-01-27T13:52:13;7.50;74.00
69189;DHT22;56302;52.322;5.926;2024-01-27T13:54:39;7.60;74.60
69189;DHT22;56302;52.322;5.926;2024-01-27T13:57:07;7.60;74.60
69189;DHT22;56302;52.322;5.926;2024-01-27T13:59:35;7.60;74.90
69189;DHT22;56302;52.322;5.926;2024-01-27T14:02:01;7.50;74.80
69189;DHT22;56302;52.322;5.926;2024-01-27T14:04:27;7.50;74.50
69189;DHT22;56302;52.322;5.926;2024-01-27T14:06:53;7.50;75.10
69189;DHT22;56302;52.322;5.926;2024-01-27T14:09:22;7.40;75.80
69189;DHT22;56302;52.322;5.926;2024-01-27T14:11:48;7.40;75.20
69189;DHT22;56302;52.322;5.926;2024-01-27T14:14:14;7.40;75.40
69189;DHT22;56302;52.322;5.926;2024-01-27T14:16:39;7.30;75.30
69189;DHT22;56302;52.322;5.926;2024-01-27T14:19:06;7.30;75.50
69189;DHT22;56302;52.322;5.926;2024-01-27T14:21:32;7.30;75.80
69189;DHT22;56302;52.322;5.926;2024-01-27T14:23:57;7.30;76.20
69189;DHT22;56302;52.322;5.926;2024-01-27T14:26:29;7.30;76.10
69189;DHT22;56302;52.322;5.926;2024-01-27T14:28:55;7.30;77.00
69189;DHT22;56302;52.322;5.926;2024-01-27T14:31:21;7.30;75.90
69189;DHT22;56302;52.322;5.926;2024-01-27T14:33:46;7.30;76.10
69189;DHT22;56302;52.322;5.926;2024-01-27T14:36:13;7.20;76.50
69189;DHT22;56302;52.322;5.926;2024-01-27T14:38:38;7.30;76.60
69189;DHT22;56302;52.322;5.926;2024-01-27T14:41:06;7.20;76.30
69189;DHT22;56302;52.322;5.926;2024-01-27T14:43:32;7.20;75.50
69189;DHT22;56302;52.322;5.926;2024-01-27T14:45:57;7.20;76.80
69189;DHT22;56302;52.322;5.926;2024-01-27T14:48:23;7.10;77.00
69189;DHT22;56302;52.322;5.926;2024-01-27T14:50:48;7.10;76.90
69189;DHT22;56302;52.322;5.926;2024-01-27T14:53:18;7.00;77.20
69189;DHT22;56302;52.322;5.926;2024-01-27T14:55:44;7.00;77.70
69189;DHT22;56302;52.322;5.926;2024-01-27T14:58:10;7.00;77.50
69189;DHT22;56302;52.322;5.926;2024-01-27T15:00:36;7.00;77.80
69189;DHT22;56302;52.322;5.926;2024-01-27T15:03:05;6.90;77.70
69189;DHT22;56302;52.322;5.926;2024-01-27T15:05:31;6.80;77.70
69189;DHT22;56302;52.322;5.926;2024-01-27T15:07:56;6.80;78.10
69189;DHT22;56302;52.322;5.926;2024-01-27T15:10:22;6.70;78.80
69189;DHT22;56302;52.322;5.926;2024-01-27T15:12:48;6.70;79.00
69189;DHT22;56302;52.322;5.926;2024-01-27T15:15:13;6.60;79.60
69189;DHT22;56302;52.322;5.926;2024-01-27T15:17:39;6.60;79.70
69189;DHT22;56302;52.322;5.926;2024-01-27T15:20:05;6.50;79.80
69189;DHT22;56302;52.322;5.926;2024-01-27T15:22:31;6.50;79.90
69189;DHT22;56302;52.322;5.926;2024-01-27T15:24:56;6.40;80.00
69189;DHT22;56302;52.322;5.926;2024-01-27T15:27:22;6.40;80.00
69189;DHT22;56302;52.322;5.926;2024-01-27T15:29:48;6.30;80.20
69189;DHT22;56302;52.322;5.926;2024-01-27T15:32:14;6.30;80.50
69189;DHT22;56302;52.322;5.926;2024-01-27T15:34:43;6.30;80.70
69189;DHT22;56302;52.322;5.926;2024-01-27T15:37:09;6.20;81.20
69189;DHT22;56302;52.322;5.926;2024-01-27T15:39:35;6.10;81.40
69189;DHT22;56302;52.322;5.926;2024-01-27T15:42:00;6.10;81.60
69189;DHT22;56302;52.322;5.926;2024-01-27T15:44:29;6.00;82.00